Time;durP1;ratioP1;P1;durP2;ratioP2;P2;SDS_P1;SDS_P2;PMS_P1;PMS_P2;Temp;Humidity;BMP_temperature;BMP_pressure;BME280_temperature;BME280_humidity;BME280_pressure;Samples;Min_cycle;Max_cycle;Signal;HPM_P1;HPM_P2
2022/01/09 00:00:34;;;;;;;51.92;31.42;;;0.60;99.90;;;;;;5059967;28;20540;-44
2022/01/09 00:03:01;;;;;;;45.15;27.05;;;0.50;99.90;;;;;;5059541;28;20592;-45
2022/01/09 00:05:29;;;;;;;52.90;28.58;;;0.30;99.90;;;;;;5059872;28;20207;-47
2022/01/09 00:07:57;;;;;;;45.13;28.20;;;0.30;99.90;;;;;;5059514;28;20498;-47
2022/01/09 00:10:26;;;;;;;53.88;32.40;;;0.10;99.90;;;;;;5069366;28;20223;-49
2022/01/09 00:12:53;;;;;;;61.15;38.35;;;-0.10;99.90;;;;;;5064521;28;20224;-48
2022/01/09 00:15:21;;;;;;;53.08;31.85;;;-0.20;99.90;;;;;;5061021;28;20528;-49
2022/01/09 00:17:48;;;;;;;50.25;31.27;;;-0.30;99.90;;;;;;5063062;28;20199;-48
2022/01/09 00:20:16;;;;;;;52.33;29.70;;;-0.40;99.90;;;;;;5063739;28;20200;-46
2022/01/09 00:22:49;;;;;;;44.20;30.30;;;-0.40;99.90;;;;;;5063552;28;20550;-50
2022/01/09 00:25:19;;;;;;;51.67;31.27;;;-0.30;99.90;;;;;;5063426;28;20200;-46
2022/01/09 00:27:48;;;;;;;52.72;31.02;;;-0.30;99.90;;;;;;5063442;28;20199;-46
2022/01/09 00:30:18;;;;;;;53.30;31.77;;;-0.50;99.90;;;;;;5064477;28;20227;-48
2022/01/09 00:32:46;;;;;;;47.63;31.55;;;-0.50;99.90;;;;;;5063891;28;20326;-46
2022/01/09 00:35:15;;;;;;;60.17;32.35;;;-0.50;99.90;;;;;;5066708;28;20268;-47
2022/01/09 00:37:43;;;;;;;53.28;32.20;;;-0.50;99.90;;;;;;5068854;28;20439;-52
2022/01/09 00:40:12;;;;;;;54.88;31.58;;;-0.50;99.90;;;;;;5067745;28;20203;-48
2022/01/09 00:42:41;;;;;;;59.53;32.40;;;-0.60;99.90;;;;;;5069078;28;20599;-48
2022/01/09 00:45:10;;;;;;;42.58;26.75;;;-0.60;99.90;;;;;;5069730;28;20195;-49
2022/01/09 00:47:38;;;;;;;46.97;30.80;;;-0.40;99.90;;;;;;5069823;28;20510;-53
2022/01/09 00:50:06;;;;;;;51.00;33.05;;;-0.70;99.90;;;;;;5067628;28;20265;-47
2022/01/09 00:52:33;;;;;;;46.35;29.85;;;-0.70;99.90;;;;;;5062395;28;20599;-51
2022/01/09 00:55:00;;;;;;;56.92;31.17;;;-0.60;99.90;;;;;;5063204;28;20573;-48
2022/01/09 00:57:28;;;;;;;46.45;28.35;;;-0.70;99.90;;;;;;5062483;28;20257;-51
2022/01/09 00:59:55;;;;;;;54.90;30.38;;;-0.70;99.90;;;;;;5062708;28;20222;-48
2022/01/09 01:02:23;;;;;;;45.42;28.15;;;-0.60;99.90;;;;;;5062601;28;20199;-49
2022/01/09 01:04:51;;;;;;;41.97;28.35;;;-0.70;99.90;;;;;;5062347;28;20195;-47
2022/01/09 01:07:20;;;;;;;51.40;31.50;;;-0.90;99.90;;;;;;5062002;28;20208;-48
2022/01/09 01:09:47;;;;;;;56.35;32.83;;;-1.00;99.90;;;;;;5062245;28;20215;-48
2022/01/09 01:12:15;;;;;;;53.55;29.38;;;-1.00;99.90;;;;;;5056938;28;20200;-51
2022/01/09 01:14:42;;;;;;;47.10;27.83;;;-0.80;99.90;;;;;;5060663;28;20199;-49
2022/01/09 01:17:10;;;;;;;51.75;30.40;;;-0.80;99.90;;;;;;5062285;28;20198;-46
2022/01/09 01:19:37;;;;;;;49.25;28.58;;;-0.80;99.90;;;;;;5061974;28;20196;-44
2022/01/09 01:22:25;;;;;;;40.03;26.60;;;-0.90;99.90;;;;;;5061262;28;20207;-45
2022/01/09 01:24:53;;;;;;;46.95;26.05;;;-0.90;99.90;;;;;;5061938;28;20530;-47
2022/01/09 01:27:20;;;;;;;43.92;28.67;;;-0.90;99.90;;;;;;5064881;28;20509;-48
2022/01/09 01:29:47;;;;;;;47.08;27.70;;;-0.90;99.90;;;;;;5065726;28;20521;-50
2022/01/09 01:32:15;;;;;;;48.20;28.17;;;-0.90;99.90;;;;;;5062335;28;20635;-47
2022/01/09 01:34:42;;;;;;;38.95;28.20;;;-1.00;99.90;;;;;;5061862;28;20250;-47
2022/01/09 01:37:10;;;;;;;41.90;25.48;;;-1.10;99.90;;;;;;5061968;28;20266;-45
2022/01/09 01:39:37;;;;;;;44.60;25.67;;;-1.20;99.90;;;;;;5061889;28;20275;-52
2022/01/09 01:42:05;;;;;;;41.65;26.55;;;-1.10;99.90;;;;;;5061591;28;20207;-46
2022/01/09 01:44:43;;;;;;;44.63;26.48;;;-1.00;99.90;;;;;;5061877;28;20246;-49
2022/01/09 01:47:13;;;;;;;45.72;28.98;;;-0.90;99.90;;;;;;5062074;28;20262;-46
2022/01/09 01:49:41;;;;;;;39.60;25.83;;;-1.20;99.90;;;;;;5068079;28;20195;-48
2022/01/09 01:52:10;;;;;;;38.10;26.48;;;-1.20;99.90;;;;;;5063081;28;20245;-45
2022/01/09 01:54:39;;;;;;;39.00;26.40;;;-1.10;99.90;;;;;;5062188;28;20200;-48
2022/01/09 01:57:08;;;;;;;46.83;29.40;;;-1.00;99.90;;;;;;5061167;28;20225;-45
2022/01/09 01:59:35;;;;;;;48.78;31.00;;;-1.00;99.90;;;;;;5062715;28;20207;-46
2022/01/09 02:02:03;;;;;;;52.47;30.75;;;-1.00;99.90;;;;;;5061690;28;20204;-52
2022/01/09 02:04:30;;;;;;;48.22;30.35;;;-1.10;99.90;;;;;;5062451;28;20195;-51
2022/01/09 02:06:59;;;;;;;51.45;29.58;;;-1.10;99.90;;;;;;5062052;28;20666;-46
2022/01/09 02:09:26;;;;;;;47.85;26.45;;;-1.10;99.90;;;;;;5061692;28;20203;-46
2022/01/09 02:11:53;;;;;;;45.63;28.80;;;-1.20;99.90;;;;;;5061987;28;20745;-49
2022/01/09 02:14:21;;;;;;;45.75;28.02;;;-1.20;99.90;;;;;;5061290;28;20242;-47
2022/01/09 02:16:49;;;;;;;45.33;27.65;;;-1.20;99.90;;;;;;5061056;28;20192;-52
2022/01/09 02:19:20;;;;;;;46.15;28.17;;;-1.30;99.90;;;;;;5059780;28;20199;-46
2022/01/09 02:21:47;;;;;;;46.22;28.75;;;-1.30;99.90;;;;;;5061112;28;20199;-48
2022/01/09 02:24:15;;;;;;;48.60;28.67;;;-1.30;99.90;;;;;;5060787;28;20215;-47
2022/01/09 02:26:42;;;;;;;46.85;31.05;;;-1.40;99.90;;;;;;5060837;28;20233;-47
2022/01/09 02:29:10;;;;;;;49.40;30.17;;;-1.40;99.90;;;;;;5060919;28;20225;-47
2022/01/09 02:31:37;;;;;;;45.67;29.08;;;-1.40;99.90;;;;;;5060890;28;20264;-49
2022/01/09 02:34:04;;;;;;;42.42;26.92;;;-1.50;99.90;;;;;;5060913;28;20223;-49
2022/01/09 02:36:31;;;;;;;50.28;27.05;;;-1.40;99.90;;;;;;5060400;28;20204;-52
2022/01/09 02:38:59;;;;;;;59.60;27.92;;;-1.40;99.90;;;;;;5060516;28;20245;-47
2022/01/09 02:41:26;;;;;;;47.15;28.60;;;-1.40;99.90;;;;;;5060616;28;20505;-51
2022/01/09 02:43:54;;;;;;;44.80;30.05;;;-1.40;99.90;;;;;;5059643;28;20272;-50
2022/01/09 02:48:55;;;;;;;48.40;25.60;;;-1.40;99.90;;;;;;5060624;28;20199;-49
2022/01/09 02:51:22;;;;;;;48.05;29.35;;;-1.40;99.90;;;;;;5059865;28;20215;-47
2022/01/09 02:53:57;;;;;;;48.42;27.33;;;-1.40;99.90;;;;;;5061068;28;20411;-48
2022/01/09 02:56:24;;;;;;;48.30;28.35;;;-1.50;99.90;;;;;;5060677;28;20218;-47
2022/01/09 02:58:52;;;;;;;43.50;26.60;;;-1.50;99.90;;;;;;5060411;28;20199;-46
2022/01/09 03:01:18;;;;;;;46.78;29.08;;;-1.50;99.90;;;;;;5060786;28;20249;-48
2022/01/09 03:03:46;;;;;;;41.83;26.92;;;-1.50;99.90;;;;;;5060144;28;20215;-47
2022/01/09 03:06:13;;;;;;;42.13;25.95;;;-1.60;99.90;;;;;;5060991;28;20188;-47
2022/01/09 03:08:41;;;;;;;43.97;27.70;;;-1.60;99.90;;;;;;5063182;28;20447;-48
2022/01/09 03:11:08;;;;;;;46.75;29.23;;;-1.50;99.90;;;;;;5064396;28;20223;-48
2022/01/09 03:13:36;;;;;;;42.83;26.35;;;-1.60;99.90;;;;;;5062839;28;20549;-50
2022/01/09 03:16:03;;;;;;;48.80;28.70;;;-1.50;99.90;;;;;;5062634;28;20200;-50
2022/01/09 03:18:31;;;;;;;50.72;29.77;;;-1.40;99.90;;;;;;5062882;28;20274;-47
2022/01/09 03:20:58;;;;;;;46.25;27.67;;;-1.50;99.90;;;;;;5063788;28;20241;-49
2022/01/09 03:23:25;;;;;;;49.97;27.15;;;-1.40;99.90;;;;;;5068903;28;20219;-51
2022/01/09 03:25:52;;;;;;;56.92;30.33;;;-1.40;99.90;;;;;;5066822;28;20208;-46
2022/01/09 03:28:19;;;;;;;49.45;28.48;;;-1.50;99.90;;;;;;5072394;28;20219;-47
2022/01/09 03:30:46;;;;;;;43.25;27.45;;;-1.50;99.90;;;;;;5061229;28;20231;-50
2022/01/09 03:33:14;;;;;;;55.33;32.63;;;-1.50;99.90;;;;;;5060126;28;20224;-48
2022/01/09 03:35:41;;;;;;;49.47;28.88;;;-1.60;99.90;;;;;;5060277;28;20210;-50
2022/01/09 03:38:08;;;;;;;38.72;26.85;;;-1.60;99.90;;;;;;5060310;28;20199;-51
2022/01/09 03:40:35;;;;;;;49.22;29.23;;;-1.50;99.90;;;;;;5060131;28;20207;-46
2022/01/09 03:43:02;;;;;;;47.25;27.92;;;-1.40;99.90;;;;;;5059694;28;20539;-48
2022/01/09 03:45:30;;;;;;;47.78;26.80;;;-1.50;99.90;;;;;;5060135;28;20195;-48
2022/01/09 03:47:57;;;;;;;37.60;25.02;;;-1.40;99.90;;;;;;5059731;28;20246;-46
2022/01/09 03:50:26;;;;;;;45.92;28.20;;;-1.50;99.90;;;;;;5061745;28;20223;-48
2022/01/09 03:52:53;;;;;;;52.33;31.25;;;-1.60;99.90;;;;;;5063507;28;20583;-54
2022/01/09 03:55:24;;;;;;;48.60;30.50;;;-1.50;99.90;;;;;;5064040;28;20199;-47
2022/01/09 03:57:51;;;;;;;53.63;32.38;;;-1.50;99.90;;;;;;5063283;28;20550;-47
2022/01/09 04:00:21;;;;;;;48.00;31.27;;;-1.60;99.90;;;;;;5063946;28;20241;-46
2022/01/09 04:02:49;;;;;;;67.20;39.70;;;-1.50;99.90;;;;;;5063419;28;20216;-52
2022/01/09 04:05:17;;;;;;;54.92;34.60;;;-1.50;99.90;;;;;;5064192;28;20271;-48
2022/01/09 04:07:44;;;;;;;57.30;37.67;;;-1.50;99.90;;;;;;5065301;28;20195;-51
2022/01/09 04:10:28;;;;;;;45.35;32.92;;;-1.50;99.90;;;;;;5072406;28;20265;-46
2022/01/09 04:12:59;;;;;;;50.88;32.35;;;-1.50;99.90;;;;;;5065536;28;20542;-48
2022/01/09 04:15:28;;;;;;;51.00;30.00;;;-1.50;99.90;;;;;;5063532;28;20241;-48
2022/01/09 04:17:56;;;;;;;47.40;26.75;;;-1.50;99.90;;;;;;5063497;28;20233;-49
2022/01/09 04:20:29;;;;;;;37.63;25.52;;;-1.50;99.90;;;;;;5063367;28;20196;-48
2022/01/09 04:22:57;;;;;;;33.53;23.10;;;-1.60;99.90;;;;;;5063400;28;20223;-48
2022/01/09 04:25:26;;;;;;;43.78;26.05;;;-1.70;99.90;;;;;;5063393;28;20287;-50
2022/01/09 04:27:53;;;;;;;36.70;23.52;;;-1.60;99.90;;;;;;5063391;28;20196;-47
2022/01/09 04:30:21;;;;;;;32.92;19.10;;;-1.60;99.90;;;;;;5063230;28;20253;-47
2022/01/09 04:32:49;;;;;;;34.83;24.23;;;-1.60;99.90;;;;;;5063381;28;20627;-48
2022/01/09 04:35:16;;;;;;;34.03;21.25;;;-1.60;99.90;;;;;;5063343;28;20506;-46
2022/01/09 04:37:44;;;;;;;32.15;20.40;;;-1.60;99.90;;;;;;5063128;28;20417;-49
2022/01/09 04:40:13;;;;;;;32.92;22.83;;;-1.70;99.90;;;;;;5063363;28;20199;-47
2022/01/09 04:42:51;;;;;;;32.10;20.33;;;-1.60;99.90;;;;;;5062913;28;20262;-50
2022/01/09 04:45:20;;;;;;;32.33;21.63;;;-1.70;99.90;;;;;;5063362;28;20199;-51
2022/01/09 04:47:50;;;;;;;32.05;22.05;;;-1.70;99.90;;;;;;5062411;28;20204;-45
2022/01/09 04:50:25;;;;;;;33.10;19.67;;;-1.70;99.90;;;;;;5063253;28;20452;-48
2022/01/09 04:52:59;;;;;;;34.10;21.35;;;-1.80;99.90;;;;;;5062487;28;20234;-48
2022/01/09 04:55:30;;;;;;;36.97;20.90;;;-1.70;99.90;;;;;;5063058;28;20200;-48
2022/01/09 04:57:58;;;;;;;31.00;21.27;;;-1.80;99.90;;;;;;5062278;28;20204;-48
2022/01/09 05:00:25;;;;;;;34.28;21.83;;;-1.80;99.90;;;;;;5062248;28;20196;-46
2022/01/09 05:02:53;;;;;;;34.17;20.88;;;-1.70;99.90;;;;;;5062239;28;20559;-51
2022/01/09 05:05:21;;;;;;;26.38;19.48;;;-1.70;99.90;;;;;;5064828;28;20197;-48
2022/01/09 05:07:48;;;;;;;32.60;19.95;;;-1.80;99.90;;;;;;5066748;28;20233;-48
2022/01/09 05:10:16;;;;;;;34.58;22.33;;;-1.80;99.90;;;;;;5063450;28;20202;-48
2022/01/09 05:12:43;;;;;;;34.40;22.38;;;-1.80;99.90;;;;;;5063043;28;20227;-47
2022/01/09 05:15:13;;;;;;;28.77;18.27;;;-1.70;99.90;;;;;;5063208;28;20199;-48
2022/01/09 05:17:40;;;;;;;32.83;20.55;;;-1.70;99.90;;;;;;5064242;28;20222;-49
2022/01/09 05:20:08;;;;;;;29.35;19.05;;;-1.70;99.90;;;;;;5063236;28;20230;-48
2022/01/09 05:22:35;;;;;;;25.98;18.88;;;-1.70;99.90;;;;;;5063434;28;20541;-52
2022/01/09 05:25:06;;;;;;;31.85;20.15;;;-1.60;99.90;;;;;;5063026;28;20196;-50
2022/01/09 05:27:35;;;;;;;27.23;17.38;;;-1.60;99.90;;;;;;5063174;28;20275;-49
2022/01/09 05:30:05;;;;;;;30.52;19.90;;;-1.60;99.90;;;;;;5062387;28;20214;-50
2022/01/09 05:32:32;;;;;;;33.55;19.58;;;-1.60;99.90;;;;;;5062037;28;20270;-46
2022/01/09 05:34:59;;;;;;;27.70;18.77;;;-1.70;99.90;;;;;;5062622;28;20231;-48
2022/01/09 05:37:26;;;;;;;23.85;16.77;;;-1.60;99.90;;;;;;5062375;28;20196;-49
2022/01/09 05:39:53;;;;;;;27.38;18.55;;;-1.60;99.90;;;;;;5062183;28;20529;-47
2022/01/09 05:42:20;;;;;;;27.67;16.55;;;-1.60;99.90;;;;;;5061821;28;20608;-48
2022/01/09 05:44:48;;;;;;;33.30;18.40;;;-1.50;99.90;;;;;;5062082;28;20203;-49
2022/01/09 05:47:15;;;;;;;19.65;14.80;;;-1.50;99.90;;;;;;5062078;28;20222;-48
2022/01/09 05:49:43;;;;;;;19.05;13.48;;;-1.50;99.90;;;;;;5061956;28;20199;-51
2022/01/09 05:52:10;;;;;;;18.38;12.20;;;-1.50;99.90;;;;;;5061311;28;20219;-50
2022/01/09 05:54:37;;;;;;;22.40;14.82;;;-1.50;99.90;;;;;;5062090;28;20196;-49
2022/01/09 05:57:05;;;;;;;19.73;13.30;;;-1.50;99.90;;;;;;5061728;28;20506;-48
2022/01/09 05:59:33;;;;;;;24.20;13.55;;;-1.50;99.90;;;;;;5064551;28;20195;-50
2022/01/09 06:02:01;;;;;;;22.20;15.13;;;-1.50;99.90;;;;;;5073752;28;20203;-48
2022/01/09 06:04:28;;;;;;;17.80;14.02;;;-1.50;99.90;;;;;;5066830;28;20215;-50
2022/01/09 06:06:55;;;;;;;19.20;11.50;;;-1.50;99.90;;;;;;5063748;28;20436;-50
2022/01/09 06:09:23;;;;;;;21.80;14.40;;;-1.50;99.90;;;;;;5062547;28;20505;-50
2022/01/09 06:11:50;;;;;;;21.17;15.45;;;-1.50;99.90;;;;;;5061675;28;20452;-51
2022/01/09 06:14:18;;;;;;;21.73;14.45;;;-1.50;99.90;;;;;;5060495;28;20220;-48
2022/01/09 06:16:45;;;;;;;19.90;13.35;;;-1.50;99.90;;;;;;5061810;28;20211;-50
2022/01/09 06:19:13;;;;;;;23.38;14.70;;;-1.60;99.90;;;;;;5061371;28;20195;-47
2022/01/09 06:21:40;;;;;;;22.02;14.48;;;-1.60;99.90;;;;;;5061242;28;20214;-49
2022/01/09 06:24:07;;;;;;;19.52;13.75;;;-1.60;99.90;;;;;;5061246;28;20242;-50
2022/01/09 06:26:34;;;;;;;26.38;16.15;;;-1.70;99.90;;;;;;5060919;28;20249;-49
2022/01/09 06:29:02;;;;;;;24.38;16.92;;;-1.60;99.90;;;;;;5060893;28;20199;-47
2022/01/09 06:31:29;;;;;;;25.20;15.73;;;-1.70;99.90;;;;;;5060735;28;20227;-49
2022/01/09 06:33:56;;;;;;;23.10;15.32;;;-1.80;99.90;;;;;;5060875;28;20216;-50
2022/01/09 06:36:24;;;;;;;26.60;17.95;;;-1.80;99.90;;;;;;5060750;28;20401;-48
2022/01/09 06:38:51;;;;;;;26.80;15.80;;;-1.90;99.90;;;;;;5060999;28;20195;-48
2022/01/09 06:41:18;;;;;;;28.30;16.75;;;-2.00;99.90;;;;;;5061031;28;20204;-49
2022/01/09 06:43:45;;;;;;;30.90;17.58;;;-2.00;99.90;;;;;;5061534;28;20242;-52
2022/01/09 06:46:13;;;;;;;32.63;20.30;;;-2.00;99.90;;;;;;5064038;28;20237;-49
2022/01/09 06:48:41;;;;;;;29.48;17.52;;;-2.00;99.90;;;;;;5061166;28;20199;-49
2022/01/09 06:51:10;;;;;;;31.92;18.58;;;-2.00;99.90;;;;;;5061404;28;20227;-50
2022/01/09 06:53:37;;;;;;;31.92;17.65;;;-2.10;99.90;;;;;;5063260;28;20261;-54
2022/01/09 06:56:05;;;;;;;34.67;19.27;;;-2.10;99.90;;;;;;5061169;28;20199;-52
2022/01/09 06:58:33;;;;;;;30.05;19.00;;;-2.10;99.90;;;;;;5060460;28;20220;-51
2022/01/09 07:01:00;;;;;;;32.85;18.65;;;-2.10;99.90;;;;;;5060625;28;20200;-52
2022/01/09 07:03:27;;;;;;;27.60;18.65;;;-2.10;99.90;;;;;;5061045;28;20254;-50
2022/01/09 07:05:55;;;;;;;36.10;19.83;;;-2.20;99.90;;;;;;5060334;28;20276;-48
2022/01/09 07:08:22;;;;;;;27.48;19.05;;;-2.20;99.90;;;;;;5060691;28;20269;-47
2022/01/09 07:10:50;;;;;;;33.10;19.63;;;-2.20;99.90;;;;;;5059859;28;20200;-49
2022/01/09 07:13:18;;;;;;;40.83;22.33;;;-2.10;99.90;;;;;;5059422;28;20595;-50
2022/01/09 07:15:45;;;;;;;33.28;22.17;;;-2.20;99.90;;;;;;5060190;28;20199;-49
2022/01/09 07:18:12;;;;;;;33.15;19.83;;;-2.20;99.90;;;;;;5060311;28;20386;-50
2022/01/09 07:20:40;;;;;;;31.98;20.25;;;-2.30;99.90;;;;;;5060510;28;20533;-49
2022/01/09 07:23:07;;;;;;;33.47;20.13;;;-2.10;99.90;;;;;;5060149;28;20228;-49
2022/01/09 07:25:34;;;;;;;32.15;20.90;;;-2.10;99.90;;;;;;5059961;28;20214;-53
2022/01/09 07:28:02;;;;;;;32.08;21.83;;;-2.10;99.90;;;;;;5060457;28;20200;-49
2022/01/09 07:30:30;;;;;;;33.45;23.60;;;-2.10;99.90;;;;;;5060268;28;20245;-48
2022/01/09 07:32:58;;;;;;;42.85;23.83;;;-2.00;99.90;;;;;;5060006;28;20265;-51
2022/01/09 07:35:26;;;;;;;37.55;23.38;;;-2.00;99.90;;;;;;5060597;28;20230;-47
2022/01/09 07:37:53;;;;;;;33.58;23.27;;;-2.00;99.90;;;;;;5060100;28;20218;-51
2022/01/09 07:40:20;;;;;;;35.60;22.42;;;-2.00;99.90;;;;;;5060829;28;20200;-48
2022/01/09 07:42:48;;;;;;;30.95;21.95;;;-2.00;99.90;;;;;;5060234;28;20457;-48
2022/01/09 07:45:19;;;;;;;36.08;26.02;;;-2.00;99.90;;;;;;5061251;28;20465;-48
2022/01/09 07:47:46;;;;;;;32.47;23.55;;;-1.90;99.90;;;;;;5062270;28;20199;-50
2022/01/09 07:50:14;;;;;;;33.28;22.30;;;-1.90;99.90;;;;;;5062696;28;20274;-51
2022/01/09 07:52:42;;;;;;;36.25;22.13;;;-1.80;99.90;;;;;;5062604;28;20557;-49
2022/01/09 07:55:10;;;;;;;40.35;24.10;;;-1.80;99.90;;;;;;5060480;28;20200;-48
2022/01/09 07:57:37;;;;;;;30.17;21.52;;;-1.80;99.90;;;;;;5060279;28;20274;-49
2022/01/09 08:00:08;;;;;;;31.83;21.88;;;-1.80;99.90;;;;;;5059574;28;20196;-48
2022/01/09 08:02:35;;;;;;;34.63;22.75;;;-1.60;99.90;;;;;;5060012;28;20449;-48
2022/01/09 08:05:03;;;;;;;30.15;20.33;;;-1.60;99.90;;;;;;5059126;28;20207;-50
2022/01/09 08:07:30;;;;;;;37.92;23.48;;;-1.60;99.90;;;;;;5059664;28;20209;-47
2022/01/09 08:09:58;;;;;;;39.67;23.95;;;-1.60;99.90;;;;;;5059633;28;20203;-50
2022/01/09 08:12:25;;;;;;;38.78;22.33;;;-1.60;99.90;;;;;;5059806;28;20223;-49
2022/01/09 08:14:52;;;;;;;31.83;20.33;;;-1.60;99.90;;;;;;5059457;28;20207;-51
2022/01/09 08:17:20;;;;;;;31.02;22.35;;;-1.50;99.90;;;;;;5059488;28;20564;-47
2022/01/09 08:19:48;;;;;;;37.25;23.17;;;-1.50;99.90;;;;;;5059751;28;20654;-50
2022/01/09 08:22:16;;;;;;;36.35;22.75;;;-1.50;99.90;;;;;;5058667;28;20195;-50
2022/01/09 08:24:43;;;;;;;36.58;20.15;;;-1.40;99.90;;;;;;5064419;28;20250;-52
2022/01/09 08:27:10;;;;;;;35.80;21.30;;;-1.50;99.90;;;;;;5060550;28;20200;-48
2022/01/09 08:29:37;;;;;;;37.22;21.70;;;-1.40;99.90;;;;;;5059608;28;20207;-47
2022/01/09 08:32:07;;;;;;;34.88;22.15;;;-1.30;99.90;;;;;;5058844;28;20341;-48
2022/01/09 08:34:34;;;;;;;38.40;23.42;;;-1.20;99.90;;;;;;5059594;28;20498;-47
2022/01/09 08:37:01;;;;;;;32.97;21.60;;;-1.20;99.90;;;;;;5061348;28;20192;-47
2022/01/09 08:39:29;;;;;;;37.95;22.52;;;-1.20;99.90;;;;;;5063154;28;20241;-50
2022/01/09 08:41:56;;;;;;;31.20;21.13;;;-1.10;99.90;;;;;;5062836;28;20238;-47
2022/01/09 08:44:23;;;;;;;29.40;18.90;;;-1.00;99.90;;;;;;5062537;28;20227;-52
2022/01/09 08:46:51;;;;;;;31.02;21.17;;;-1.00;99.90;;;;;;5062881;28;20200;-49
2022/01/09 08:49:18;;;;;;;29.80;19.83;;;-0.90;99.90;;;;;;5062541;28;20210;-49
2022/01/09 08:51:45;;;;;;;36.00;19.95;;;-0.90;99.90;;;;;;5062871;28;20281;-48
2022/01/09 08:54:12;;;;;;;33.13;20.00;;;-0.70;99.90;;;;;;5062465;28;20215;-51
2022/01/09 08:56:41;;;;;;;32.78;21.10;;;-0.60;99.90;;;;;;5062749;28;20195;-48
2022/01/09 08:59:08;;;;;;;28.95;18.65;;;-0.70;99.90;;;;;;5062290;28;20271;-47
2022/01/09 09:01:44;;;;;;;26.33;19.10;;;-0.60;99.90;;;;;;5062643;28;20413;-51
2022/01/09 09:04:11;;;;;;;27.50;19.10;;;-0.60;99.90;;;;;;5062315;28;20550;-50
2022/01/09 09:06:39;;;;;;;30.58;18.95;;;-0.60;99.90;;;;;;5062558;28;20270;-49
2022/01/09 09:09:07;;;;;;;30.50;18.88;;;-0.60;99.90;;;;;;5062647;28;20249;-49
2022/01/09 09:11:35;;;;;;;26.70;17.10;;;-0.40;99.90;;;;;;5062070;28;20290;-54
2022/01/09 09:14:04;;;;;;;24.98;16.48;;;-0.30;99.90;;;;;;5062443;28;20216;-52
2022/01/09 09:16:32;;;;;;;30.27;17.27;;;-0.30;99.90;;;;;;5062298;28;20200;-49
2022/01/09 09:19:00;;;;;;;27.15;16.42;;;-0.20;99.90;;;;;;5062413;28;20334;-48
2022/01/09 09:21:27;;;;;;;21.15;14.23;;;-0.20;99.90;;;;;;5062352;28;20196;-51
2022/01/09 09:23:55;;;;;;;25.27;16.77;;;-0.10;99.90;;;;;;5061106;28;20215;-49
2022/01/09 09:26:22;;;;;;;28.55;15.13;;;0.00;99.90;;;;;;5061918;28;20242;-51
2022/01/09 09:28:50;;;;;;;28.02;15.38;;;0.10;99.90;;;;;;5062179;28;20242;-50
2022/01/09 09:31:18;;;;;;;22.52;16.55;;;0.10;99.90;;;;;;5062483;28;20195;-50
2022/01/09 09:33:45;;;;;;;27.73;15.10;;;0.20;99.90;;;;;;5062530;28;20227;-50
2022/01/09 09:36:13;;;;;;;24.98;16.85;;;0.20;99.90;;;;;;5063958;28;20202;-48
2022/01/09 09:38:40;;;;;;;26.38;14.93;;;0.30;99.90;;;;;;5063548;28;20265;-48
2022/01/09 09:41:08;;;;;;;20.88;13.82;;;0.30;99.90;;;;;;5062780;28;20204;-46
2022/01/09 09:43:35;;;;;;;20.13;12.95;;;0.30;99.90;;;;;;5062082;28;20215;-50
2022/01/09 09:46:03;;;;;;;18.52;13.68;;;0.40;99.90;;;;;;5062342;28;20203;-50
2022/01/09 09:48:30;;;;;;;24.27;13.32;;;0.50;99.90;;;;;;5060998;28;20517;-48
2022/01/09 09:50:58;;;;;;;23.42;14.60;;;0.60;99.90;;;;;;5062069;28;20200;-50
2022/01/09 09:53:25;;;;;;;21.60;13.50;;;0.70;99.90;;;;;;5061561;28;20514;-46
2022/01/09 09:55:53;;;;;;;24.48;13.93;;;0.80;99.90;;;;;;5061887;28;20217;-50
2022/01/09 09:58:22;;;;;;;24.25;14.45;;;0.80;99.90;;;;;;5062484;28;20196;-47
2022/01/09 10:00:56;;;;;;;54.35;25.52;;;0.70;99.90;;;;;;5062007;28;20510;-47
2022/01/09 10:03:32;;;;;;;30.92;16.52;;;0.80;99.90;;;;;;5065966;28;20219;-53
2022/01/09 10:06:01;;;;;;;21.60;13.55;;;0.80;99.90;;;;;;5059017;28;20298;-48
2022/01/09 10:08:37;;;;;;;29.48;15.88;;;0.90;99.90;;;;;;5047313;28;20239;-51
2022/01/09 10:11:14;;;;;;;30.00;16.33;;;0.90;99.90;;;;;;5046452;28;20207;-49
2022/01/09 10:13:42;;;;;;;21.73;13.80;;;0.90;99.90;;;;;;5054231;28;20294;-49
2022/01/09 10:16:10;;;;;;;23.70;12.50;;;0.90;99.90;;;;;;5061083;28;20423;-53
2022/01/09 10:18:44;;;;;;;23.35;13.95;;;0.90;99.90;;;;;;5061656;28;20203;-52
2022/01/09 10:21:20;;;;;;;21.52;13.95;;;0.90;99.90;;;;;;5061155;28;20196;-52
2022/01/09 10:24:03;;;;;;;26.10;15.27;;;0.90;99.90;;;;;;5060578;28;20269;-50
2022/01/09 10:26:38;;;;;;;24.52;13.60;;;0.90;99.90;;;;;;5054192;28;20246;-51
2022/01/09 10:29:08;;;;;;;21.30;13.43;;;0.90;99.90;;;;;;5042672;28;20400;-51
2022/01/09 10:31:43;;;;;;;23.10;13.38;;;1.00;99.90;;;;;;5044756;28;20567;-51
2022/01/09 10:34:11;;;;;;;20.75;13.77;;;1.20;99.90;;;;;;5059431;28;20233;-52
2022/01/09 10:36:43;;;;;;;20.33;11.48;;;1.20;99.90;;;;;;5061249;28;20195;-49
2022/01/09 10:39:26;;;;;;;30.85;16.10;;;1.30;99.90;;;;;;5060777;28;20204;-48
2022/01/09 10:41:59;;;;;;;19.55;13.05;;;1.40;99.90;;;;;;5061529;28;20195;-53
2022/01/09 10:44:33;;;;;;;20.80;13.35;;;1.30;99.90;;;;;;5066487;28;20238;-54
2022/01/09 10:47:09;;;;;;;19.58;13.68;;;1.40;99.90;;;;;;5058686;28;20207;-50
2022/01/09 10:49:39;;;;;;;17.58;12.32;;;1.50;99.90;;;;;;5065322;28;20220;-52
2022/01/09 10:52:25;;;;;;;18.58;11.75;;;1.60;99.90;;;;;;5065904;28;20215;-50
2022/01/09 10:54:58;;;;;;;20.25;11.75;;;1.60;99.90;;;;;;5065893;28;20466;-55
2022/01/09 10:57:28;;;;;;;19.83;11.35;;;1.70;99.90;;;;;;5063688;28;20199;-49
2022/01/09 11:00:13;;;;;;;22.65;12.85;;;1.70;99.90;;;;;;5059819;28;20195;-48
2022/01/09 11:02:41;;;;;;;28.02;12.73;;;1.80;99.90;;;;;;5060697;28;20223;-50
2022/01/09 11:05:08;;;;;;;20.38;10.85;;;1.80;99.90;;;;;;5060357;28;20267;-51
2022/01/09 11:07:37;;;;;;;19.65;11.25;;;1.90;99.90;;;;;;5060264;28;20203;-52
2022/01/09 11:10:07;;;;;;;20.08;12.30;;;2.00;99.90;;;;;;5060348;28;20206;-49
2022/01/09 11:12:45;;;;;;;13.60;9.80;;;1.90;99.90;;;;;;5052586;28;20232;-49
2022/01/09 11:15:18;;;;;;;21.77;12.38;;;1.90;99.90;;;;;;5060782;28;20230;-49
2022/01/09 11:17:45;;;;;;;12.20;9.18;;;2.00;99.90;;;;;;5060045;28;20398;-49
2022/01/09 11:20:13;;;;;;;16.00;10.10;;;2.10;99.90;;;;;;5060144;28;20203;-47
2022/01/09 11:22:42;;;;;;;18.63;12.32;;;2.20;99.90;;;;;;5059783;28;20294;-52
2022/01/09 11:25:23;;;;;;;13.77;9.35;;;2.30;99.90;;;;;;5060572;28;20473;-51
2022/01/09 11:28:03;;;;;;;20.95;11.90;;;2.20;99.90;;;;;;5059487;28;20460;-52
2022/01/09 11:30:52;;;;;;;21.02;12.13;;;2.30;99.90;;;;;;5060088;28;20200;-50
2022/01/09 11:33:27;;;;;;;21.80;12.43;;;2.30;99.90;;;;;;5054703;28;20225;-50
2022/01/09 11:36:16;;;;;;;21.67;13.05;;;2.30;99.90;;;;;;5060532;28;20195;-48
2022/01/09 11:39:12;;;;;;;21.00;11.65;;;2.30;99.90;;;;;;5061037;28;20250;-50
2022/01/09 11:41:41;;;;;;;18.33;10.75;;;2.30;99.90;;;;;;5059953;28;20205;-51
2022/01/09 11:44:11;;;;;;;15.85;11.20;;;2.30;99.90;;;;;;5045439;28;20220;-50
2022/01/09 11:46:58;;;;;;;14.30;10.63;;;2.30;99.90;;;;;;5050026;28;20212;-47
2022/01/09 11:49:38;;;;;;;15.57;8.85;;;2.30;99.90;;;;;;5043092;28;20744;-51
2022/01/09 11:52:06;;;;;;;16.30;10.50;;;2.30;99.90;;;;;;5046974;28;20434;-47
2022/01/09 11:54:51;;;;;;;22.65;11.15;;;2.30;99.90;;;;;;5050336;28;20242;-47
2022/01/09 11:57:48;;;;;;;16.45;9.85;;;2.30;99.90;;;;;;5047848;28;20224;-50
2022/01/09 12:00:31;;;;;;;20.15;10.00;;;2.30;99.90;;;;;;5034057;28;20197;-49
2022/01/09 12:03:00;;;;;;;18.80;9.05;;;2.40;99.90;;;;;;5044988;28;20251;-53
2022/01/09 12:05:28;;;;;;;15.02;10.05;;;2.50;99.90;;;;;;5046447;28;20206;-55
2022/01/09 12:07:55;;;;;;;16.23;10.85;;;2.50;99.90;;;;;;5055530;28;20203;-53
2022/01/09 12:10:32;;;;;;;11.55;6.85;;;2.60;99.90;;;;;;5060419;28;20269;-51
2022/01/09 12:13:00;;;;;;;18.17;10.50;;;2.70;99.90;;;;;;5056310;28;20228;-50
2022/01/09 12:15:47;;;;;;;13.48;8.88;;;2.70;99.90;;;;;;5053981;28;20188;-50
2022/01/09 12:18:53;;;;;;;17.60;9.68;;;2.90;99.90;;;;;;5049875;28;20443;-49
2022/01/09 12:21:38;;;;;;;14.82;9.15;;;2.80;99.90;;;;;;4990902;28;20190;-49
2022/01/09 12:24:40;;;;;;;13.25;9.88;;;2.70;99.90;;;;;;5000700;28;20374;-50
2022/01/09 12:27:48;;;;;;;17.63;10.38;;;2.70;99.90;;;;;;5048940;28;20371;-46
2022/01/09 12:30:33;;;;;;;13.48;9.20;;;2.80;99.90;;;;;;5061145;28;20200;-49
2022/01/09 12:33:09;;;;;;;16.77;9.55;;;2.80;99.90;;;;;;5058178;28;20297;-49
2022/01/09 12:35:39;;;;;;;15.80;8.90;;;2.70;99.90;;;;;;5044092;28;20228;-49
2022/01/09 12:38:12;;;;;;;15.10;10.70;;;2.80;99.90;;;;;;5055164;28;20201;-50
2022/01/09 12:40:41;;;;;;;15.45;10.15;;;2.80;99.90;;;;;;5062723;28;20246;-49
2022/01/09 12:43:08;;;;;;;15.95;8.90;;;2.90;99.90;;;;;;5063053;28;20224;-52
2022/01/09 12:45:43;;;;;;;21.90;11.23;;;2.70;99.90;;;;;;5062937;28;20200;-48